Latest Weather Observations for Sunshine Coast Airport

IDQ60901

Issued at 3:51 pm EST Saturday 5 December 2020 (issued every 10 minutes, with the page automatically refreshed every 10 minutes)

About weather observations | Map of Brisbane area stations | Latest observations for Brisbane area | Other Formats
Station Details ID: 040861 Name: SUNSHINE COAST AIRPORT Lat: -26.60 Lon: 153.09 Height: 3.42 m
Data from the previous 72 hours. | See also: Recent months at Sunshine Coast Airport
Date/Time
EST
Temp
°C
App
Temp
°C
Dew
Point
°C
Rel
Hum
%
Delta-T
°C
Wind Press
QNH
hPa
Press
MSL
hPa
Rain since
9am
mm
Dir  Spd
km/h
Gust
km/h
Spd
kts
Gust
kts
05/03:30pm 27.1 25.1 21.2 70 3.9 NNE 33 43 18 23 1009.6 1009.6 0.0
05/03:00pm 27.6 25.5 21.6 70 4.0 NNE 35 44 19 24 1010.0 1010.0 0.0
05/02:30pm 27.7 25.6 21.0 67 4.4 NNE 33 43 18 23 1010.4 1010.4 0.0
05/02:00pm 28.1 26.8 21.4 67 4.5 NNE 30 39 16 21 1011.2 1011.2 0.0
05/01:30pm 28.4 27.4 21.9 68 4.4 NNE 30 37 16 20 1011.4 1011.4 0.0
05/01:00pm 28.3 27.1 21.6 67 4.5 NNE 30 37 16 20 1011.7 1011.7 0.0
05/12:30pm 28.4 27.4 21.9 68 4.4 NNE 30 35 16 19 1011.9 1011.9 0.0
05/12:00pm 27.9 27.0 21.4 67 4.3 NNE 28 35 15 19 1012.3 1012.3 0.0
05/11:30am 27.9 26.4 21.0 66 4.6 NE 30 35 16 19 1012.6 1012.6 0.0
05/11:00am 27.6 26.4 21.6 70 4.0 NE 30 37 16 20 1012.9 1012.9 0.0
05/10:30am 27.5 26.2 21.3 69 4.1 NE 30 35 16 19 1013.1 1013.1 0.0
05/10:00am 27.3 25.6 20.6 67 4.4 NE 30 33 16 18 1013.3 1013.3 0.0
05/09:30am 27.1 25.9 20.9 69 4.1 NE 28 33 15 18 1013.5 1013.5 0.0
05/09:00am 26.5 25.6 20.6 70 3.9 NE 26 32 14 17 1013.8 1013.8 0.0
05/08:30am 26.2 25.5 20.3 70 3.9 NE 24 28 13 15 1013.9 1013.9 0.0
05/08:00am 26.9 28.1 20.7 69 4.1 NNE 15 22 8 12 1014.1 1014.1 0.0
05/07:30am 25.6 26.8 19.9 70 3.7 N 13 20 7 11 1013.9 1013.9 0.0
05/07:00am 24.6 25.9 19.4 73 3.3 N 11 17 6 9 1014.1 1014.1 0.0
05/06:30am 24.0 25.7 20.1 79 2.5 N 11 17 6 9 1013.7 1013.7 0.0
05/06:00am 22.0 24.4 20.1 89 1.2 N 7 9 4 5 1013.3 1013.3 0.0
05/05:30am 20.8 22.6 19.6 93 0.8 NNW 9 11 5 6 1013.0 1013.0 0.0
05/05:00am 19.6 20.8 18.3 92 0.8 N 9 11 5 6 1012.4 1012.4 0.0
05/04:30am 20.0 21.5 18.8 93 0.8 N 9 11 5 6 1012.2 1012.2 0.0
05/04:00am 20.2 21.3 18.9 92 0.8 N 11 13 6 7 1012.1 1012.1 0.0
05/03:30am 20.4 21.5 18.9 91 0.9 N 11 13 6 7 1011.9 1011.9 0.0
05/03:00am 20.6 21.7 18.9 90 1.1 N 11 13 6 7 1011.9 1011.9 0.0
05/02:30am 21.1 22.4 19.2 89 1.2 NNW 11 13 6 7 1011.7 1011.7 0.0
05/02:00am 22.0 22.9 19.2 84 1.8 NNW 13 19 7 10 1011.6 1011.6 0.0
05/01:30am 22.2 22.5 19.6 85 1.7 N 17 20 9 11 1011.7 1011.7 0.0
05/01:00am 22.1 23.5 19.5 85 1.7 N 11 15 6 8 1012.1 1012.1 0.0
05/12:30am 22.2 23.6 19.6 85 1.7 N 11 15 6 8 1012.3 1012.3 0.0
05/12:00am 22.3 22.8 20.0 87 1.5 N 17 20 9 11 1012.4 1012.4 0.0
 
Date/Time
EST
Temp
°C
App
Temp
°C
Dew
Point
°C
Rel
Hum
%
Delta-T
°C
Wind Press
QNH
hPa
Press
MSL
hPa
Rain since
9am
mm
Dir  Spd
km/h
Gust
km/h
Spd
kts
Gust
kts
04/11:30pm 22.5 23.7 20.0 86 1.6 N 13 19 7 10 1012.9 1012.9 0.0
04/11:00pm 22.7 23.9 20.0 85 1.7 N 13 19 7 10 1013.7 1013.7 0.0
04/10:30pm 22.2 23.4 19.9 87 1.5 NNW 13 17 7 9 1013.6 1013.6 0.0
04/10:00pm 23.2 25.3 20.2 83 1.9 N 9 15 5 8 1013.9 1013.9 0.0
04/09:30pm 23.8 24.4 20.3 81 2.3 N 17 24 9 13 1013.5 1013.5 0.0
04/09:00pm 23.9 25.0 20.4 81 2.3 N 15 24 8 13 1013.1 1013.1 0.0
04/08:30pm 24.2 25.0 20.7 81 2.3 N 17 24 9 13 1012.6 1012.6 0.0
04/08:00pm 24.5 24.8 20.8 80 2.4 N 20 28 11 15 1012.3 1012.3 0.0
04/07:30pm 24.7 24.6 20.8 79 2.6 N 22 32 12 17 1012.0 1012.0 0.0
04/07:00pm 24.7 24.6 20.8 79 2.6 N 22 30 12 16 1011.7 1011.7 0.0
04/06:30pm 25.0 25.0 20.9 78 2.7 NNE 22 32 12 17 1011.5 1011.5 0.0
04/06:00pm 25.5 25.4 20.7 75 3.1 NNE 22 32 12 17 1011.2 1011.2 0.0
04/05:30pm 26.1 25.7 20.9 73 3.4 NNE 24 32 13 17 1010.9 1010.9 0.0
04/05:00pm 26.4 25.1 20.7 71 3.7 NNE 28 37 15 20 1010.8 1010.8 0.0
04/04:30pm 27.1 25.4 21.4 71 3.8 NNE 32 39 17 21 1010.5 1010.5 0.0
04/04:00pm 27.7 26.4 21.3 68 4.3 NNE 30 39 16 21 1010.4 1010.4 0.0
04/03:30pm 27.9 26.4 21.7 69 4.2 NNE 32 37 17 20 1010.4 1010.4 0.0
04/03:00pm 27.5 25.8 21.3 69 4.1 NNE 32 39 17 21 1010.8 1010.8 0.0
04/02:30pm 28.9 26.9 21.1 62 5.2 NNE 33 41 18 22 1011.0 1011.0 0.0
04/02:00pm 28.5 26.1 21.0 64 5.0 NNE 35 41 19 22 1011.5 1011.5 0.0
04/01:30pm 28.5 25.7 20.2 60 5.5 NNE 35 41 19 22 1011.8 1011.8 0.0
04/01:00pm 28.3 25.4 20.8 63 5.0 NNE 37 46 20 25 1011.9 1011.9 0.0
04/12:30pm 29.2 27.2 21.9 64 4.9 NNE 35 44 19 24 1012.5 1012.5 0.0
04/12:00pm 29.2 27.4 21.2 62 5.3 NNE 32 39 17 21 1013.1 1013.1 0.0
04/11:30am 29.0 27.5 21.0 62 5.3 NNE 30 37 16 20 1013.9 1013.9 0.0
04/11:00am 28.9 27.6 20.6 61 5.5 NNE 28 32 15 17 1015.0 1014.9 0.0
04/10:30am 28.0 26.8 20.0 61 5.2 NE 26 30 14 16 1015.7 1015.6 0.0
04/10:00am 27.9 27.7 19.7 61 5.3 NE 20 24 11 13 1016.3 1016.2 0.0
04/09:30am 28.0 29.2 20.6 64 4.9 ENE 15 19 8 10 1016.7 1016.6 0.0
04/09:00am 27.5 28.4 20.1 64 4.8 NE 15 19 8 10 1017.1 1017.0 0.0
04/08:30am 27.1 28.7 20.0 65 4.6 E 11 15 6 8 1017.8 1017.7 0.0
04/08:00am 27.3 29.2 20.6 67 4.4 E 11 13 6 7 1017.9 1017.8 0.0
04/07:30am 26.8 30.0 20.4 68 4.2 W 4 7 2 4 1018.3 1018.2 0.0
04/07:00am 24.9 26.9 19.9 74 3.2 W 9 13 5 7 1018.4 1018.3 0.0
04/06:30am 22.7 25.0 20.6 88 1.4 W 9 11 5 6 1018.6 1018.5 0.0
04/06:00am 21.5 24.0 20.3 93 0.8 NW 7 9 4 5 1018.4 1018.3 0.0
04/05:30am 21.2 23.1 19.8 92 0.9 W 9 11 5 6 1018.5 1018.4 0.0
04/05:00am 21.0 23.4 20.0 94 0.6 WSW 7 9 4 5 1018.2 1018.1 0.0
04/04:30am 20.5 22.7 19.7 95 0.5 W 7 9 4 5 1018.0 1017.9 0.0
04/04:00am 20.1 22.1 19.1 94 0.6 WSW 7 9 4 5 1017.8 1017.7 0.0
04/03:30am 19.9 23.1 18.9 94 0.6 CALM 0 0 0 0 1017.5 1017.4 0.0
04/03:00am 19.6 21.3 18.4 93 0.7 SW 7 7 4 4 1017.5 1017.4 0.0
04/02:30am 20.3 22.5 19.1 93 0.8 SW 6 11 3 6 1017.9 1017.8 0.0
04/02:00am 20.1 22.0 18.9 93 0.8 W 7 7 4 4 1018.4 1018.3 0.0
04/01:30am 20.6 22.9 19.4 93 0.8 W 6 9 3 5 1018.2 1018.1 0.0
04/01:00am 20.4 22.4 19.2 93 0.8 WNW 7 9 4 5 1018.3 1018.2 0.0
04/12:30am 20.7 23.0 19.4 92 0.8 WNW 6 6 3 3 1018.4 1018.3 0.0
04/12:00am 20.6 22.8 19.3 92 0.8 WSW 6 7 3 4 1018.6 1018.5 0.0
 
Date/Time
EST
Temp
°C
App
Temp
°C
Dew
Point
°C
Rel
Hum
%
Delta-T
°C
Wind Press
QNH
hPa
Press
MSL
hPa
Rain since
9am
mm
Dir  Spd
km/h
Gust
km/h
Spd
kts
Gust
kts
03/11:30pm 21.0 23.1 19.3 90 1.1 WSW 7 9 4 5 1018.8 1018.7 0.0
03/11:00pm 21.4 23.7 19.5 89 1.2 NNW 6 7 3 4 1018.9 1018.8 0.0
03/10:30pm 21.5 23.7 19.2 87 1.5 NW 6 7 3 4 1018.7 1018.6 0.0
03/10:00pm 22.8 24.6 18.8 78 2.5 NE 7 11 4 6 1018.8 1018.7 0.0
03/09:30pm 24.0 25.7 20.1 79 2.5 ENE 11 13 6 7 1018.7 1018.6 0.0
03/09:00pm 24.3 25.5 20.0 77 2.8 ENE 13 15 7 8 1018.6 1018.5 0.0
03/08:30pm 24.3 25.5 20.0 77 2.8 ENE 13 15 7 8 1018.7 1018.6 0.0
03/08:00pm 24.2 25.9 20.1 78 2.6 ENE 11 13 6 7 1018.7 1018.6 0.0
03/07:30pm 24.2 25.9 20.1 78 2.7 NE 11 13 6 7 1018.5 1018.4 0.0
03/07:00pm 24.5 25.8 20.2 77 2.8 ENE 13 17 7 9 1018.0 1017.9 0.0
03/06:30pm 24.6 25.9 20.1 76 2.9 ENE 13 17 7 9 1017.7 1017.6 0.0
03/06:00pm 25.3 26.1 19.9 72 3.5 ENE 15 20 8 11 1017.5 1017.4 0.0
03/05:30pm 26.1 27.2 20.4 71 3.7 ENE 15 20 8 11 1017.1 1017.0 0.0
03/05:00pm 26.3 26.5 20.2 69 4.0 NE 19 20 10 11 1017.2 1017.1 0.0
03/04:30pm 26.8 27.0 20.2 67 4.3 NE 19 22 10 12 1017.0 1016.9 0.0
03/04:00pm 27.1 27.4 20.4 66 4.4 NE 19 24 10 13 1016.8 1016.7 0.0
03/03:30pm 27.3 26.9 20.1 64 4.7 NE 22 26 12 14 1016.8 1016.7 0.0
03/03:00pm 27.5 27.6 20.3 65 4.7 NE 20 24 11 13 1017.0 1016.9 0.0
03/02:30pm 28.3 28.4 20.3 62 5.3 NE 20 26 11 14 1017.2 1017.1 0.0
03/02:00pm 28.6 28.8 20.1 60 5.6 NE 19 24 10 13 1017.3 1017.2 0.0
03/01:30pm 27.8 27.2 20.4 64 4.9 NE 24 28 13 15 1017.4 1017.3 0.0
03/01:00pm 28.3 28.2 20.8 63 5.0 NE 22 26 12 14 1017.8 1017.7 0.0
03/12:30pm 27.5 26.9 19.8 63 5.0 NE 22 26 12 14 1018.1 1018.0 0.0
03/12:00pm 27.7 26.9 20.0 63 5.0 NE 24 28 13 15 1018.4 1018.3 0.0
03/11:30am 27.6 27.1 19.9 63 5.0 NE 22 26 12 14 1018.8 1018.7 0.0
03/11:00am 27.9 27.2 19.4 60 5.5 NE 22 28 12 15 1019.1 1019.0 0.0
03/10:30am 28.0 27.9 20.0 61 5.2 NE 20 26 11 14 1019.2 1019.1 0.0
03/10:00am 27.8 27.6 19.8 61 5.2 NE 20 26 11 14 1019.4 1019.3 0.0
03/09:30am 27.9 28.1 20.2 63 5.0 NE 19 22 10 12 1019.6 1019.5 0.0
03/09:00am 27.1 26.9 19.7 64 4.8 NE 20 24 11 13 1019.5 1019.4 0.0
03/08:30am 26.9 27.2 19.5 64 4.8 NE 17 20 9 11 1019.7 1019.6 0.0
03/08:00am 26.8 27.8 20.2 67 4.3 ENE 15 20 8 11 1019.7 1019.6 0.0
03/07:30am 27.2 28.1 20.0 64 4.7 ENE 15 19 8 10 1019.8 1019.7 0.0
03/07:00am 26.4 26.7 20.3 69 4.0 NE 19 24 10 13 1019.3 1019.2 0.0
03/06:30am 25.8 25.6 20.6 73 3.4 NE 22 26 12 14 1018.9 1018.8 0.0
03/06:00am 24.9 25.2 20.8 78 2.7 NE 20 24 11 13 1019.1 1019.0 0.0
03/05:30am 24.6 24.9 20.7 79 2.6 NE 20 24 11 13 1018.6 1018.5 0.0
03/05:00am 24.2 25.2 21.1 83 2.0 NE 17 22 9 12 1018.4 1018.3 0.0
03/04:30am 24.2 25.7 21.3 84 1.9 NE 15 19 8 10 1018.1 1018.0 0.0
03/04:00am 24.3 26.5 21.8 86 1.7 NE 13 17 7 9 1018.4 1018.3 0.0
03/03:30am 24.3 26.5 21.8 86 1.7 ENE 13 17 7 9 1018.4 1018.3 0.0
03/03:29am 24.3 26.5 21.8 86 1.7 ENE 13 17 7 9 1018.4 1018.3 0.0
03/03:15am 24.3 27.3 22.0 87 1.5 E 9 15 5 8 1018.5 1018.4 0.0
03/03:00am 24.4 27.6 22.3 88 1.4 E 9 11 5 6 1018.5 1018.4 0.0
03/02:30am 24.3 28.3 22.0 87 1.5 ESE 4 7 2 4 1019.1 1019.0 0.0
03/02:00am 24.6 28.9 21.9 85 1.8 ESE 2 6 1 3 1019.5 1019.4 0.0
03/01:30am 24.3 27.8 22.2 88 1.4 E 7 9 4 5 1019.2 1019.1 0.0
03/01:00am 23.5 26.7 21.2 87 1.5 NE 6 9 3 5 1019.0 1018.9 0.0
03/12:30am 24.1 28.6 21.6 86 1.7 CALM 0 2 0 1 1019.7 1019.6 0.0
03/12:00am 24.3 27.1 21.6 85 1.8 NE 9 13 5 7 1019.6 1019.5 0.0
 
Date/Time
EST
Temp
°C
App
Temp
°C
Dew
Point
°C
Rel
Hum
%
Delta-T
°C
Wind Press
QNH
hPa
Press
MSL
hPa
Rain since
9am
mm
Dir  Spd
km/h
Gust
km/h
Spd
kts
Gust
kts
02/11:30pm 24.6 26.3 21.7 84 1.9 NE 15 22 8 12 1018.9 1018.8 0.0
02/11:00pm 24.8 25.8 22.1 85 1.8 NE 20 24 11 13 1018.4 1018.3 0.0
02/10:30pm 24.7 25.6 22.0 85 1.8 NE 20 24 11 13 1018.5 1018.4 0.0
02/10:25pm 24.7 25.9 22.2 86 1.7 NE 19 22 10 12 1018.7 1018.6 0.0
02/10:00pm 24.7 27.2 22.4 87 1.5 NE 13 17 7 9 1019.2 1019.1 0.0
02/09:30pm 24.6 26.9 22.1 86 1.7 NNE 13 15 7 8 1018.7 1018.6 0.0
02/09:10pm 24.7 26.6 22.0 85 1.8 NNE 15 20 8 11 1018.3 1018.2 0.0
02/09:08pm 24.7 26.6 22.0 85 1.8 NNE 15 20 8 11 1018.3 1018.2 0.0
02/09:00pm 24.7 26.6 22.0 85 1.8 NNE 15 19 8 10 1017.9 1017.8 0.0
02/08:48pm 24.9 26.9 22.2 85 1.8 NNE 15 20 8 11 1017.7 1017.6 0.0
02/08:30pm 24.7 26.2 22.0 85 1.8 NNE 17 20 9 11 1017.1 1017.0 0.0
02/08:00pm 24.8 25.9 21.9 84 1.9 NNE 19 24 10 13 1017.0 1016.9 0.0
02/07:30pm 24.9 25.9 22.2 85 1.8 NE 20 24 11 13 1016.9 1016.8 0.0
02/07:00pm 25.2 26.4 22.1 83 2.1 NNE 19 24 10 13 1016.2 1016.1 0.0
02/06:30pm 25.2 26.0 20.7 76 2.9 N 17 24 9 13 1015.6 1015.5 0.0
02/06:00pm 25.6 25.5 21.5 78 2.7 N 24 35 13 19 1014.6 1014.6 0.0
02/05:30pm 26.1 25.7 21.7 77 2.9 NNE 26 35 14 19 1014.3 1014.3 0.0
02/05:00pm 26.7 26.1 21.9 75 3.2 NNE 28 35 15 19 1014.4 1014.4 0.0
02/04:30pm 27.1 26.2 22.1 74 3.4 NNE 30 39 16 21 1013.8 1013.8 0.0
02/04:00pm 27.7 26.9 22.4 73 3.6 NNE 30 37 16 20 1013.8 1013.8 0.0

Latest Capital City Observations: Canberra | Sydney | Melbourne | Brisbane | Adelaide | Perth | Hobart | Darwin

Other formats

Comma delimited format used in spreadsheet applications
http://www.bom.gov.au/fwo/IDQ60901/IDQ60901.94569.axf

JavaScript Object Notation format (JSON) in row-major order
http://www.bom.gov.au/fwo/IDQ60901/IDQ60901.94569.json

Data quality

Most of these data are generated automatically and are frequently updated. Quality checks on data are not normally performed. It is possible for incorrect values to appear. Refer to information at About Latest Weather Observations and please check the disclaimer before using these data.